Time;durP1;ratioP1;P1;durP2;ratioP2;P2;SDS_P1;SDS_P2;PMS_P1;PMS_P2;Temp;Humidity;BMP_temperature;BMP_pressure;BME280_temperature;BME280_humidity;BME280_pressure;Samples;Min_cycle;Max_cycle;Signal;HPM_P1;HPM_P2
2022/04/25 00:01:26;;;;;;;7.35;3.40;;;8.20;99.90;;;;;;5036338;28;20037;-76
2022/04/25 00:03:52;;;;;;;5.63;2.63;;;8.20;99.90;;;;;;5036287;28;20175;-75
2022/04/25 00:06:17;;;;;;;7.22;3.90;;;8.10;99.90;;;;;;5037852;28;20545;-75
2022/04/25 00:08:43;;;;;;;7.13;4.05;;;8.10;99.90;;;;;;5038216;28;20037;-74
2022/04/25 00:11:09;;;;;;;6.72;3.45;;;8.00;99.90;;;;;;5037075;28;20025;-75
2022/04/25 00:13:34;;;;;;;4.28;2.08;;;8.00;99.90;;;;;;5036216;28;20474;-76
2022/04/25 00:16:01;;;;;;;5.75;3.72;;;8.00;99.90;;;;;;5020015;28;20036;-75
2022/04/25 00:18:27;;;;;;;5.70;2.90;;;8.00;99.90;;;;;;5036762;28;20116;-75
2022/04/25 00:20:52;;;;;;;2.47;1.77;;;8.00;99.90;;;;;;5021347;28;20446;-75
2022/04/25 00:23:18;;;;;;;7.53;3.67;;;8.00;99.90;;;;;;5037868;28;20037;-75
2022/04/25 00:25:44;;;;;;;5.28;2.58;;;7.90;99.90;;;;;;5036576;28;20025;-75
2022/04/25 00:28:10;;;;;;;3.35;2.28;;;7.90;99.90;;;;;;5036443;28;20053;-75
2022/04/25 00:30:35;;;;;;;3.45;1.50;;;7.90;99.90;;;;;;5036752;28;20064;-75
2022/04/25 00:33:01;;;;;;;8.70;3.67;;;7.80;99.90;;;;;;5051479;28;20128;-75
2022/04/25 00:35:28;;;;;;;5.70;3.70;;;7.80;99.90;;;;;;5054707;28;20433;-75
2022/04/25 00:37:54;;;;;;;5.57;3.42;;;7.80;99.90;;;;;;5036286;28;20505;-75
2022/04/25 00:40:21;;;;;;;5.40;3.40;;;7.80;99.90;;;;;;5015734;28;20036;-76
2022/04/25 00:42:48;;;;;;;5.43;2.92;;;7.80;99.90;;;;;;5037670;28;20040;-75
2022/04/25 00:45:14;;;;;;;4.97;2.55;;;7.70;99.90;;;;;;5037509;28;20045;-75
2022/04/25 00:47:40;;;;;;;3.35;1.80;;;7.70;99.90;;;;;;5037236;28;20173;-75
2022/04/25 00:50:08;;;;;;;3.35;1.35;;;7.70;99.90;;;;;;5035212;28;20068;-75
2022/04/25 00:52:35;;;;;;;4.40;1.55;;;7.70;99.90;;;;;;5036135;28;20044;-75
2022/04/25 00:55:03;;;;;;;6.18;4.07;;;7.70;99.90;;;;;;5051228;28;20139;-75
2022/04/25 00:57:31;;;;;;;5.85;2.60;;;7.60;99.90;;;;;;5036869;28;20032;-75
2022/04/25 00:59:57;;;;;;;4.82;2.33;;;7.60;99.90;;;;;;5036816;28;20029;-75
2022/04/25 01:02:27;;;;;;;4.05;2.95;;;7.50;99.90;;;;;;5036360;28;20029;-75
2022/04/25 01:04:57;;;;;;;5.45;3.40;;;7.50;99.90;;;;;;5036487;28;20500;-77
2022/04/25 01:07:22;;;;;;;5.72;3.20;;;7.50;99.90;;;;;;5014414;28;20473;-76
2022/04/25 01:09:48;;;;;;;4.95;2.60;;;7.40;99.90;;;;;;5037326;28;20039;-75
2022/04/25 01:12:14;;;;;;;4.05;2.38;;;7.40;99.90;;;;;;5037119;28;20039;-75
2022/04/25 01:14:39;;;;;;;4.90;2.90;;;7.40;99.90;;;;;;5036867;28;20051;-75
2022/04/25 01:17:06;;;;;;;5.47;3.20;;;7.40;99.90;;;;;;5036622;28;20043;-75
2022/04/25 01:19:32;;;;;;;5.55;3.33;;;7.40;99.90;;;;;;5036440;28;20126;-75
2022/04/25 01:22:12;;;;;;;6.63;2.75;;;7.30;99.90;;;;;;5036113;28;20056;-75
2022/04/25 01:27:23;;;;;;;6.70;4.05;;;7.30;99.90;;;;;;5031695;28;20044;-74
2022/04/25 01:29:53;;;;;;;8.18;4.25;;;7.30;99.90;;;;;;5035116;28;20048;-75
2022/04/25 01:32:21;;;;;;;7.15;4.07;;;7.20;99.90;;;;;;5019947;28;20576;-75
2022/04/25 01:34:48;;;;;;;6.38;3.95;;;7.20;99.90;;;;;;5035904;28;20582;-76
2022/04/25 01:37:16;;;;;;;4.70;2.88;;;7.20;99.90;;;;;;5053484;28;20087;-75
2022/04/25 01:39:50;;;;;;;9.85;5.28;;;7.20;99.90;;;;;;5050806;28;20091;-75
2022/04/25 01:42:17;;;;;;;7.78;4.00;;;7.10;99.90;;;;;;5033960;28;20108;-75
2022/04/25 01:44:43;;;;;;;5.32;3.70;;;7.10;99.90;;;;;;5035831;28;20501;-75
2022/04/25 01:47:09;;;;;;;5.78;2.88;;;7.10;99.90;;;;;;5017838;28;20040;-75
2022/04/25 01:49:36;;;;;;;8.80;3.83;;;7.10;99.90;;;;;;5036245;28;20033;-75
2022/04/25 01:52:20;;;;;;;6.18;4.20;;;7.10;99.90;;;;;;5030308;28;20204;-75
2022/04/25 01:54:46;;;;;;;5.78;3.50;;;7.10;99.90;;;;;;5047837;28;20045;-75
2022/04/25 01:57:11;;;;;;;10.10;4.80;;;7.00;99.90;;;;;;5017074;28;20040;-75
2022/04/25 01:59:37;;;;;;;4.63;3.03;;;6.90;99.90;;;;;;5034853;28;20026;-75
2022/04/25 02:02:03;;;;;;;6.30;3.35;;;7.00;99.90;;;;;;5035739;28;20435;-75
2022/04/25 02:04:29;;;;;;;6.95;4.30;;;6.90;99.90;;;;;;5034922;28;20035;-75
2022/04/25 02:06:56;;;;;;;4.82;3.28;;;6.90;99.90;;;;;;5019618;28;20382;-76
2022/04/25 02:09:22;;;;;;;5.57;4.10;;;6.90;99.90;;;;;;5035733;28;20060;-75
2022/04/25 02:11:48;;;;;;;7.70;3.92;;;6.90;99.90;;;;;;5033146;28;20033;-74
2022/04/25 02:14:13;;;;;;;5.88;4.10;;;6.90;99.90;;;;;;5036108;28;20047;-75
2022/04/25 02:16:40;;;;;;;7.07;4.22;;;6.80;99.90;;;;;;5033268;28;20389;-75
2022/04/25 02:19:06;;;;;;;7.15;4.90;;;6.90;99.90;;;;;;5035041;28;20029;-75
2022/04/25 02:21:32;;;;;;;7.53;4.95;;;6.80;99.90;;;;;;5018135;28;20029;-76
2022/04/25 02:23:57;;;;;;;5.63;4.18;;;6.90;99.90;;;;;;5036017;28;20033;-75
2022/04/25 02:26:23;;;;;;;9.13;4.57;;;6.90;99.90;;;;;;5035404;28;20040;-76
2022/04/25 02:28:49;;;;;;;9.68;5.05;;;6.90;99.90;;;;;;5035256;28;20063;-75
2022/04/25 02:31:16;;;;;;;6.60;4.25;;;6.90;99.90;;;;;;5042466;28;20163;-75
2022/04/25 02:33:41;;;;;;;5.32;3.20;;;6.90;99.90;;;;;;5034681;28;20041;-75
2022/04/25 02:36:08;;;;;;;5.90;4.25;;;6.90;99.90;;;;;;5041157;28;20033;-75
2022/04/25 02:38:35;;;;;;;8.05;4.03;;;6.90;99.90;;;;;;5038928;28;20701;-75
2022/04/25 02:41:08;;;;;;;8.70;5.07;;;6.90;99.90;;;;;;5038308;28;20035;-75
2022/04/25 02:43:39;;;;;;;6.97;4.85;;;6.90;99.90;;;;;;5039608;28;20040;-75
2022/04/25 02:46:07;;;;;;;8.98;5.28;;;6.90;99.90;;;;;;5039573;28;20048;-75
2022/04/25 02:48:34;;;;;;;11.27;6.03;;;7.00;99.90;;;;;;5002114;28;20230;-74
2022/04/25 02:51:02;;;;;;;6.47;4.28;;;7.00;99.90;;;;;;5054223;28;20039;-75
2022/04/25 02:53:27;;;;;;;9.32;5.10;;;7.00;99.90;;;;;;5034512;28;20436;-75
2022/04/25 02:55:53;;;;;;;10.85;6.70;;;7.00;99.90;;;;;;5045070;28;20063;-75
2022/04/25 02:58:20;;;;;;;8.18;4.78;;;6.90;99.90;;;;;;5024370;28;20033;-75
2022/04/25 03:00:47;;;;;;;8.32;6.15;;;6.90;99.90;;;;;;5053694;28;20048;-75
2022/04/25 03:03:14;;;;;;;8.80;5.60;;;6.90;99.90;;;;;;5033743;28;20021;-75
2022/04/25 03:05:44;;;;;;;7.95;5.32;;;6.80;99.90;;;;;;5037415;28;20550;-75
2022/04/25 03:08:16;;;;;;;7.50;4.90;;;6.80;99.90;;;;;;5018072;28;20032;-75
2022/04/25 03:10:43;;;;;;;8.20;5.15;;;6.80;99.90;;;;;;5037041;28;20433;-75
2022/04/25 03:13:10;;;;;;;7.53;5.05;;;6.80;99.90;;;;;;5032666;28;20110;-75
2022/04/25 03:15:39;;;;;;;6.03;4.25;;;6.70;99.90;;;;;;5034797;28;20045;-75
2022/04/25 03:18:10;;;;;;;8.15;4.38;;;6.80;99.90;;;;;;5038606;28;20025;-74
2022/04/25 03:20:35;;;;;;;5.22;3.55;;;6.80;99.90;;;;;;5021348;28;20040;-75
2022/04/25 03:23:01;;;;;;;6.05;3.92;;;6.80;99.90;;;;;;5033800;28;20029;-75
2022/04/25 03:25:28;;;;;;;7.32;5.07;;;6.80;99.90;;;;;;5038774;28;20041;-75
2022/04/25 03:27:54;;;;;;;7.93;4.22;;;6.90;99.90;;;;;;5033680;28;20029;-75
2022/04/25 03:30:20;;;;;;;6.90;4.85;;;6.90;99.90;;;;;;5038257;28;20086;-74
2022/04/25 03:32:49;;;;;;;6.40;4.50;;;7.00;99.90;;;;;;5022819;28;20028;-75
2022/04/25 03:35:17;;;;;;;5.60;3.60;;;7.10;99.90;;;;;;5037916;28;20094;-75
2022/04/25 03:37:44;;;;;;;7.95;5.55;;;7.10;99.90;;;;;;5037017;28;20473;-75
2022/04/25 03:40:11;;;;;;;8.32;5.70;;;7.10;99.90;;;;;;5038264;28;20071;-75
2022/04/25 03:42:38;;;;;;;7.65;4.72;;;7.10;99.90;;;;;;5038256;28;20786;-75
2022/04/25 03:45:09;;;;;;;7.07;4.07;;;7.20;99.90;;;;;;5037225;28;20124;-75
2022/04/25 03:47:41;;;;;;;6.80;5.13;;;7.20;99.90;;;;;;5020758;28;20051;-74
2022/04/25 03:50:08;;;;;;;7.20;4.70;;;7.20;99.90;;;;;;5020055;28;20557;-75
2022/04/25 03:52:39;;;;;;;10.38;6.55;;;7.30;99.90;;;;;;5033377;28;20033;-75
2022/04/25 03:57:51;;;;;;;7.38;5.32;;;7.30;99.90;;;;;;5038181;28;21731;-74
2022/04/25 04:00:17;;;;;;;9.15;5.93;;;7.30;99.90;;;;;;5022851;28;20481;-75
2022/04/25 04:02:43;;;;;;;7.22;5.53;;;7.40;99.90;;;;;;5036206;28;20500;-75
2022/04/25 04:05:09;;;;;;;12.43;8.80;;;7.40;99.90;;;;;;5033904;28;20025;-74
2022/04/25 04:07:35;;;;;;;10.93;6.78;;;7.40;99.90;;;;;;5032540;28;20481;-75
2022/04/25 04:10:00;;;;;;;8.48;5.75;;;7.40;99.90;;;;;;5036567;28;20044;-75
2022/04/25 04:12:32;;;;;;;11.25;6.18;;;7.40;99.90;;;;;;5016085;28;20091;-75
2022/04/25 04:14:59;;;;;;;9.10;7.40;;;7.40;99.90;;;;;;5038303;28;20513;-75
2022/04/25 04:17:28;;;;;;;9.95;6.78;;;7.40;99.90;;;;;;5037904;28;20028;-76
2022/04/25 04:19:53;;;;;;;8.50;5.68;;;7.40;99.90;;;;;;5052501;28;20036;-74
2022/04/25 04:22:25;;;;;;;9.68;6.57;;;7.50;99.90;;;;;;5035933;28;20036;-75
2022/04/25 04:24:51;;;;;;;7.82;4.80;;;7.50;99.90;;;;;;5037631;28;20021;-75
2022/04/25 04:27:17;;;;;;;8.68;5.80;;;7.60;99.90;;;;;;5037367;28;20405;-75
2022/04/25 04:29:44;;;;;;;7.15;5.10;;;7.60;99.90;;;;;;5036049;28;20051;-76
2022/04/25 04:32:10;;;;;;;9.30;5.55;;;7.60;99.90;;;;;;5036484;28;20022;-75
2022/04/25 04:34:36;;;;;;;10.10;7.13;;;7.60;99.90;;;;;;5037553;28;20059;-75
2022/04/25 04:37:04;;;;;;;8.43;6.05;;;7.60;99.90;;;;;;5032844;28;20052;-75
2022/04/25 04:39:31;;;;;;;8.10;5.03;;;7.70;99.90;;;;;;5020027;28;20465;-75
2022/04/25 04:41:57;;;;;;;10.60;6.10;;;7.70;99.90;;;;;;5037822;28;20025;-75
2022/04/25 04:44:22;;;;;;;6.45;4.57;;;7.70;99.90;;;;;;5035643;28;20033;-75
2022/04/25 04:46:48;;;;;;;6.25;4.82;;;7.70;99.90;;;;;;5036510;28;20051;-74
2022/04/25 04:49:15;;;;;;;8.20;6.30;;;7.80;99.90;;;;;;5021185;28;20078;-75
2022/04/25 04:51:41;;;;;;;9.98;6.53;;;7.80;99.90;;;;;;5035830;28;20029;-74
2022/04/25 04:54:07;;;;;;;8.38;5.95;;;7.80;99.90;;;;;;5035541;28;20771;-74
2022/04/25 04:56:33;;;;;;;7.43;6.07;;;7.90;99.90;;;;;;5043022;28;20060;-75
2022/04/25 04:58:59;;;;;;;8.52;5.30;;;7.90;99.90;;;;;;5052994;28;20041;-75
2022/04/25 05:01:26;;;;;;;10.25;7.30;;;8.00;99.90;;;;;;5019225;28;20032;-75
2022/04/25 05:03:52;;;;;;;9.55;7.20;;;8.00;99.90;;;;;;5020440;28;20041;-75
2022/04/25 05:06:18;;;;;;;7.55;6.07;;;8.00;99.90;;;;;;5033967;28;20051;-76
2022/04/25 05:08:44;;;;;;;10.48;8.20;;;8.00;99.90;;;;;;5035523;28;20025;-75
2022/04/25 05:11:11;;;;;;;16.60;10.00;;;8.00;99.90;;;;;;5032623;28;20033;-76
2022/04/25 05:13:37;;;;;;;10.55;9.20;;;8.00;99.90;;;;;;5036179;28;20500;-76
2022/04/25 05:16:06;;;;;;;13.57;10.52;;;8.10;99.90;;;;;;5034776;28;20045;-75
2022/04/25 05:18:33;;;;;;;10.80;8.97;;;8.10;99.90;;;;;;5004804;28;20172;-75
2022/04/25 05:21:00;;;;;;;13.13;10.10;;;8.10;99.90;;;;;;5020428;28;20044;-77
2022/04/25 05:23:26;;;;;;;13.60;11.32;;;8.10;99.90;;;;;;5036062;28;20170;-76
2022/04/25 05:25:53;;;;;;;12.07;9.85;;;8.20;99.90;;;;;;5034703;28;20051;-75
2022/04/25 05:28:19;;;;;;;13.02;9.32;;;8.10;99.90;;;;;;5038174;28;20044;-75
2022/04/25 05:30:46;;;;;;;15.00;11.27;;;8.20;99.90;;;;;;5034959;28;20028;-75
2022/04/25 05:33:12;;;;;;;14.45;10.48;;;8.20;99.90;;;;;;5033689;28;20037;-76
2022/04/25 05:35:38;;;;;;;14.27;10.57;;;8.20;99.90;;;;;;5035243;28;20060;-76
2022/04/25 05:38:06;;;;;;;12.30;9.88;;;8.20;99.90;;;;;;5050644;28;20485;-75
2022/04/25 05:40:32;;;;;;;11.80;8.88;;;8.20;99.90;;;;;;5019110;28;20642;-77
2022/04/25 05:43:02;;;;;;;11.00;9.00;;;8.20;99.90;;;;;;5035014;28;20036;-76
2022/04/25 05:45:27;;;;;;;11.75;8.80;;;8.20;99.90;;;;;;5035324;28;20021;-76
2022/04/25 05:47:55;;;;;;;18.52;12.90;;;8.30;99.90;;;;;;5035061;28;20037;-75
2022/04/25 05:53:06;;;;;;;12.05;9.93;;;8.30;99.90;;;;;;5033473;28;20067;-76
2022/04/25 05:55:32;;;;;;;10.55;8.63;;;8.30;99.90;;;;;;5034059;28;20056;-76
2022/04/25 05:58:00;;;;;;;11.60;9.20;;;8.30;99.90;;;;;;5017016;28;20029;-76
2022/04/25 06:00:27;;;;;;;13.00;11.20;;;8.40;99.90;;;;;;5052297;28;20099;-77
2022/04/25 06:02:53;;;;;;;16.08;11.73;;;8.40;99.90;;;;;;5033664;28;20046;-75
2022/04/25 06:05:19;;;;;;;19.00;14.25;;;8.40;99.90;;;;;;5018863;28;20040;-76
2022/04/25 06:07:47;;;;;;;20.25;14.18;;;8.40;99.90;;;;;;5018890;28;20036;-77
2022/04/25 06:10:15;;;;;;;19.10;14.23;;;8.40;99.90;;;;;;5034453;28;20053;-76
2022/04/25 06:12:48;;;;;;;19.35;13.70;;;8.50;99.90;;;;;;5028416;28;20086;-76
2022/04/25 06:15:16;;;;;;;16.70;13.07;;;8.50;99.90;;;;;;5037000;28;20045;-76
2022/04/25 06:17:42;;;;;;;20.58;15.85;;;8.50;99.90;;;;;;5035630;28;20253;-76
2022/04/25 06:20:09;;;;;;;20.10;14.73;;;8.50;99.90;;;;;;5036021;28;20044;-76
2022/04/25 06:22:36;;;;;;;14.65;12.02;;;8.60;99.90;;;;;;5035070;28;20020;-76
2022/04/25 06:25:03;;;;;;;17.50;13.75;;;8.60;99.90;;;;;;5031820;28;20114;-76
2022/04/25 06:27:29;;;;;;;14.80;11.95;;;8.60;99.90;;;;;;5033013;28;20112;-77
2022/04/25 06:29:54;;;;;;;17.70;12.80;;;8.60;99.90;;;;;;5031350;28;20098;-75
2022/04/25 06:32:20;;;;;;;14.18;11.73;;;8.60;99.90;;;;;;5028984;28;20033;-76
2022/04/25 06:34:47;;;;;;;13.77;10.60;;;8.60;99.90;;;;;;5049280;28;20045;-76
2022/04/25 06:37:13;;;;;;;13.48;11.02;;;8.60;99.90;;;;;;5034809;28;20663;-76
2022/04/25 06:39:39;;;;;;;15.30;11.75;;;8.70;99.90;;;;;;5033086;28;20056;-76
2022/04/25 06:42:05;;;;;;;14.13;11.68;;;8.70;99.90;;;;;;5017739;28;20037;-76
2022/04/25 06:44:32;;;;;;;14.90;12.65;;;8.70;99.90;;;;;;5048675;28;20037;-76
2022/04/25 06:46:58;;;;;;;15.82;13.70;;;8.70;99.90;;;;;;5033198;28;20039;-77
2022/04/25 06:49:24;;;;;;;15.63;11.13;;;8.60;99.90;;;;;;5050546;28;20183;-76
2022/04/25 06:51:56;;;;;;;15.75;13.30;;;8.60;99.90;;;;;;5034935;28;20033;-77
2022/04/25 06:54:26;;;;;;;20.15;16.50;;;8.60;99.90;;;;;;5033800;28;20052;-76
2022/04/25 06:56:56;;;;;;;20.35;17.73;;;8.50;99.90;;;;;;5029864;28;20049;-78
2022/04/25 06:59:22;;;;;;;16.98;13.55;;;8.50;99.90;;;;;;5034262;28;20969;-76
2022/04/25 07:01:50;;;;;;;17.85;14.75;;;8.60;99.90;;;;;;5035124;28;20033;-77
2022/04/25 07:04:16;;;;;;;15.60;13.80;;;8.60;99.90;;;;;;5030835;28;20366;-77
2022/04/25 07:06:43;;;;;;;15.00;11.82;;;8.50;99.90;;;;;;5018917;28;20037;-77
2022/04/25 07:09:13;;;;;;;15.50;12.05;;;8.50;99.90;;;;;;5031748;28;20033;-76
2022/04/25 07:11:43;;;;;;;21.80;15.90;;;8.50;99.90;;;;;;5031705;28;20025;-77
2022/04/25 07:14:12;;;;;;;;;;;8.50;99.90;;;;;;5012186;28;20163;-76
2022/04/25 07:16:39;;;;;;;16.75;13.43;;;8.50;99.90;;;;;;5034460;28;19916;-76
2022/04/25 07:19:06;;;;;;;14.20;11.43;;;8.40;99.90;;;;;;5034664;28;20028;-77
2022/04/25 07:29:48;;;;;;;15.68;12.55;;;8.30;99.90;;;;;;5039640;28;20104;-75
2022/04/25 07:32:18;;;;;;;16.02;12.90;;;8.30;99.90;;;;;;5039752;28;20068;-76
2022/04/25 07:34:46;;;;;;;15.13;12.30;;;8.20;99.90;;;;;;5056094;28;20104;-76
2022/04/25 07:37:11;;;;;;;14.63;10.77;;;8.20;99.90;;;;;;5045163;28;20033;-76
2022/04/25 07:39:37;;;;;;;17.77;13.20;;;8.20;99.90;;;;;;5038374;28;20036;-77
2022/04/25 07:42:04;;;;;;;17.13;11.70;;;8.20;99.90;;;;;;5038509;28;20083;-76
2022/04/25 07:44:30;;;;;;;15.07;11.60;;;8.20;99.90;;;;;;5040090;28;20033;-76
2022/04/25 07:46:56;;;;;;;17.70;12.02;;;8.20;99.90;;;;;;5037992;28;20061;-76
2022/04/25 07:49:22;;;;;;;13.05;9.68;;;8.30;99.90;;;;;;5038508;28;20212;-77
2022/04/25 07:51:48;;;;;;;14.38;10.90;;;8.40;99.90;;;;;;5022236;28;20126;-75
2022/04/25 07:54:14;;;;;;;12.68;10.43;;;8.40;99.90;;;;;;5038905;28;20041;-77
2022/04/25 07:56:42;;;;;;;10.93;8.27;;;8.50;99.90;;;;;;5040457;28;20038;-78
2022/04/25 07:59:08;;;;;;;14.63;10.63;;;8.50;99.90;;;;;;5022304;28;20148;-76
2022/04/25 08:01:34;;;;;;;18.13;13.20;;;8.50;99.90;;;;;;5038093;28;20029;-76
2022/04/25 08:04:00;;;;;;;17.33;12.57;;;8.40;99.90;;;;;;5055362;28;20029;-76
2022/04/25 08:06:26;;;;;;;18.92;12.80;;;8.40;99.90;;;;;;5038275;28;20466;-76
2022/04/25 08:08:53;;;;;;;14.75;10.57;;;8.40;99.90;;;;;;5021867;28;20063;-76
2022/04/25 08:11:20;;;;;;;18.85;12.75;;;8.40;99.90;;;;;;5023397;28;20029;-75
2022/04/25 08:19:20;;;;;;;16.02;10.32;;;8.60;99.90;;;;;;5015992;28;20068;-76
2022/04/25 08:21:46;;;;;;;11.68;8.98;;;8.60;99.90;;;;;;5003110;28;20065;-75
2022/04/25 08:24:13;;;;;;;10.75;6.63;;;8.60;99.90;;;;;;5003044;28;20100;-75
2022/04/25 08:26:39;;;;;;;14.10;9.23;;;8.60;99.90;;;;;;4991591;28;20047;-76
2022/04/25 08:29:05;;;;;;;13.88;9.90;;;8.60;99.90;;;;;;5001459;28;20560;-76
2022/04/25 08:31:35;;;;;;;14.90;9.75;;;8.60;99.90;;;;;;5003612;28;20221;-75
2022/04/25 08:34:05;;;;;;;15.32;10.65;;;8.60;99.90;;;;;;5019336;28;20056;-75
2022/04/25 08:36:31;;;;;;;12.57;9.60;;;8.60;99.90;;;;;;5020506;28;20425;-77
2022/04/25 08:38:58;;;;;;;15.00;10.68;;;8.80;99.90;;;;;;5036326;28;20515;-77
2022/04/25 08:41:34;;;;;;;13.77;9.48;;;8.70;99.90;;;;;;5004594;28;20091;-76
2022/04/25 08:44:02;;;;;;;16.70;10.15;;;8.80;99.90;;;;;;5017306;28;20136;-77
2022/04/25 08:46:32;;;;;;;13.57;9.85;;;8.90;99.90;;;;;;5019293;28;20623;-76
2022/04/25 08:49:03;;;;;;;13.00;8.57;;;8.90;99.90;;;;;;5020695;28;20513;-78
2022/04/25 08:51:30;;;;;;;12.18;8.95;;;8.90;99.90;;;;;;5004232;28;20867;-76
2022/04/25 08:53:56;;;;;;;12.75;9.63;;;9.00;99.90;;;;;;5010457;28;20752;-77
2022/04/25 08:56:25;;;;;;;12.27;9.32;;;8.90;99.90;;;;;;5012162;28;20047;-76
2022/04/25 08:58:51;;;;;;;15.32;10.75;;;9.00;99.90;;;;;;5035896;28;20072;-75
2022/04/25 09:01:17;;;;;;;18.75;12.77;;;9.00;99.90;;;;;;5034189;28;20108;-75
2022/04/25 09:03:43;;;;;;;17.75;12.68;;;8.90;99.90;;;;;;5039521;28;20028;-77
2022/04/25 09:06:09;;;;;;;14.82;10.90;;;9.00;99.90;;;;;;5037818;28;20028;-75
2022/04/25 09:08:35;;;;;;;19.83;13.82;;;9.00;99.90;;;;;;5036843;28;20025;-76
2022/04/25 09:13:46;;;;;;;15.70;11.55;;;9.10;99.90;;;;;;5035288;28;20149;-76
2022/04/25 09:16:16;;;;;;;16.42;10.18;;;9.10;99.90;;;;;;5034867;28;20671;-75
2022/04/25 09:18:43;;;;;;;14.52;9.38;;;9.20;99.90;;;;;;5039673;28;20067;-76
2022/04/25 09:21:13;;;;;;;11.70;9.35;;;9.20;99.90;;;;;;5020768;28;20041;-75
2022/04/25 09:23:39;;;;;;;;;;;9.40;99.90;;;;;;5022644;28;20032;-76
2022/04/25 09:26:15;;;;;;;13.30;8.93;;;9.40;99.90;;;;;;5037256;28;19985;-77
2022/04/25 09:28:46;;;;;;;16.13;10.02;;;9.50;99.90;;;;;;5032715;28;20052;-76
2022/04/25 09:31:14;;;;;;;13.43;9.85;;;9.30;99.90;;;;;;5035757;28;20025;-76
2022/04/25 09:33:39;;;;;;;13.00;9.60;;;9.40;99.90;;;;;;5034934;28;20051;-75
2022/04/25 09:36:06;;;;;;;11.65;9.63;;;9.40;99.90;;;;;;5033391;28;20025;-76
2022/04/25 09:38:34;;;;;;;12.13;7.93;;;9.40;99.90;;;;;;5035863;28;20124;-75
2022/04/25 09:41:00;;;;;;;12.25;8.55;;;9.40;99.90;;;;;;5019595;28;20033;-77
2022/04/25 09:43:34;;;;;;;14.73;9.80;;;9.60;99.90;;;;;;5034325;28;20048;-76
2022/04/25 09:46:06;;;;;;;16.75;11.63;;;9.50;99.90;;;;;;5038067;28;20424;-76
2022/04/25 09:48:33;;;;;;;15.07;10.65;;;9.60;99.90;;;;;;5020480;28;20033;-77
2022/04/25 09:51:00;;;;;;;13.38;9.25;;;9.60;99.90;;;;;;5038295;28;20029;-76
2022/04/25 09:53:45;;;;;;;12.75;9.38;;;9.70;99.90;;;;;;5019004;28;20425;-75
2022/04/25 09:56:39;;;;;;;12.65;8.55;;;9.80;99.90;;;;;;5036422;28;20049;-76
2022/04/25 09:59:07;;;;;;;11.65;7.40;;;9.90;99.90;;;;;;5051473;28;20029;-76
2022/04/25 10:01:34;;;;;;;14.57;10.23;;;9.90;99.90;;;;;;5055294;28;20063;-76
2022/04/25 10:04:01;;;;;;;16.35;11.75;;;10.00;99.90;;;;;;5036047;28;20643;-77
2022/04/25 10:06:32;;;;;;;11.88;8.57;;;10.00;99.90;;;;;;5021668;28;20044;-76
2022/04/25 10:09:01;;;;;;;12.63;9.50;;;10.00;99.90;;;;;;5034826;28;20517;-76
2022/04/25 10:11:32;;;;;;;17.35;11.82;;;10.00;99.90;;;;;;5016051;28;20290;-76
2022/04/25 10:13:58;;;;;;;16.52;10.43;;;9.90;99.90;;;;;;5031747;28;20150;-76
2022/04/25 10:16:25;;;;;;;14.10;10.75;;;10.00;99.90;;;;;;5036867;28;20211;-75
2022/04/25 10:18:51;;;;;;;11.98;9.02;;;10.00;99.90;;;;;;5020179;28;20029;-75
2022/04/25 10:21:17;;;;;;;13.75;10.82;;;10.10;99.90;;;;;;5036495;28;20029;-76
2022/04/25 10:23:44;;;;;;;12.25;9.23;;;10.20;99.90;;;;;;5033024;28;20366;-76
2022/04/25 10:26:10;;;;;;;11.85;8.95;;;10.50;99.90;;;;;;5049612;28;20296;-75
2022/04/25 10:28:54;;;;;;;16.10;11.32;;;10.70;99.90;;;;;;5032417;28;20104;-77
2022/04/25 10:31:38;;;;;;;14.38;9.52;;;10.60;99.90;;;;;;5033396;28;20017;-77
2022/04/25 10:34:05;;;;;;;13.68;9.85;;;10.60;99.90;;;;;;5032175;28;20057;-76
2022/04/25 10:36:36;;;;;;;9.13;7.60;;;10.60;99.90;;;;;;5030601;28;20041;-76
2022/04/25 10:39:23;;;;;;;14.20;10.15;;;10.80;99.90;;;;;;5014928;28;20036;-76
2022/04/25 10:44:42;;;;;;;13.10;10.05;;;10.60;99.90;;;;;;5033873;28;20033;-76
2022/04/25 10:47:13;;;;;;;12.07;9.07;;;10.50;99.90;;;;;;5033615;28;20025;-77
2022/04/25 10:49:52;;;;;;;10.95;8.07;;;10.60;99.90;;;;;;5013133;28;20500;-75
2022/04/25 10:55:14;;;;;;;11.40;8.73;;;10.40;99.90;;;;;;5030664;28;20420;-77
2022/04/25 10:58:02;;;;;;;11.75;7.85;;;10.40;99.90;;;;;;5040963;28;20056;-77
2022/04/25 11:00:40;;;;;;;13.70;9.15;;;10.40;99.90;;;;;;5040249;28;20047;-76
2022/04/25 11:03:16;;;;;;;8.52;7.43;;;10.30;99.90;;;;;;5040025;28;20041;-76
2022/04/25 11:05:52;;;;;;;12.00;8.65;;;10.40;99.90;;;;;;5056901;28;20072;-75
2022/04/25 11:08:18;;;;;;;11.90;7.30;;;10.40;99.90;;;;;;5024706;28;20053;-77
2022/04/25 11:11:04;;;;;;;15.00;9.75;;;10.30;99.90;;;;;;5040963;28;20529;-77
2022/04/25 11:13:35;;;;;;;10.25;7.47;;;10.20;99.90;;;;;;5037153;28;20021;-76
2022/04/25 11:16:24;;;;;;;13.82;8.30;;;10.20;99.90;;;;;;5038187;28;20025;-76
2022/04/25 11:19:09;;;;;;;12.88;8.48;;;10.20;99.90;;;;;;5037629;28;20481;-76
2022/04/25 11:21:35;;;;;;;13.55;8.50;;;10.30;99.90;;;;;;5037414;28;20033;-76
2022/04/25 11:24:02;;;;;;;13.68;8.25;;;10.30;99.90;;;;;;5040174;28;20044;-77
2022/04/25 11:26:33;;;;;;;10.32;7.25;;;10.30;99.90;;;;;;5022276;28;20294;-77
2022/04/25 11:29:08;;;;;;;8.98;7.00;;;10.40;99.90;;;;;;5038637;28;20075;-76
2022/04/25 11:31:36;;;;;;;11.63;6.97;;;10.40;99.90;;;;;;5038730;28;20028;-76
2022/04/25 11:34:13;;;;;;;10.18;7.47;;;10.30;99.90;;;;;;5034953;28;20033;-77
2022/04/25 11:36:43;;;;;;;11.43;8.20;;;10.30;99.90;;;;;;5034552;28;20462;-76
2022/04/25 11:41:57;;;;;;;9.70;7.38;;;10.40;99.90;;;;;;5035172;28;20509;-75
2022/04/25 11:44:23;;;;;;;8.98;7.05;;;10.40;99.90;;;;;;5017547;28;20114;-76
2022/04/25 11:46:50;;;;;;;9.23;6.50;;;10.50;99.90;;;;;;5033948;28;20394;-76
2022/04/25 11:49:27;;;;;;;8.43;6.03;;;10.70;99.90;;;;;;5032825;28;20029;-76
2022/04/25 11:51:53;;;;;;;10.07;5.93;;;10.70;99.90;;;;;;5034042;28;20579;-77
2022/04/25 11:54:18;;;;;;;9.75;6.03;;;10.80;99.90;;;;;;5032339;28;20040;-76
2022/04/25 11:56:44;;;;;;;11.52;6.85;;;10.90;99.90;;;;;;5033867;28;21063;-77
2022/04/25 11:59:15;;;;;;;7.47;5.68;;;10.90;99.90;;;;;;5034675;28;20037;-76
2022/04/25 12:01:47;;;;;;;8.57;5.43;;;10.90;99.90;;;;;;5019353;28;20120;-77
2022/04/25 12:04:27;;;;;;;7.70;5.35;;;11.00;99.90;;;;;;5034891;28;20088;-77
2022/04/25 12:06:59;;;;;;;;;;;10.90;99.90;;;;;;5034347;28;20033;-76
2022/04/25 12:17:44;;;;;;;6.28;4.53;;;10.80;99.90;;;;;;5037771;28;20032;-76
2022/04/25 12:20:13;;;;;;;10.15;6.03;;;10.70;99.90;;;;;;5051662;28;20052;-77
2022/04/25 12:22:40;;;;;;;7.43;5.45;;;10.70;99.90;;;;;;5036740;28;20036;-76
2022/04/25 12:25:20;;;;;;;8.40;5.05;;;10.70;99.90;;;;;;5020482;28;20222;-77
2022/04/25 12:28:01;;;;;;;6.85;5.10;;;10.70;99.90;;;;;;5036247;28;20358;-76
2022/04/25 12:30:28;;;;;;;7.82;4.80;;;10.70;99.90;;;;;;5037665;28;20032;-76
2022/04/25 12:33:10;;;;;;;8.50;5.80;;;10.80;99.90;;;;;;5036939;28;20072;-76
2022/04/25 12:35:36;;;;;;;7.22;5.60;;;10.60;99.90;;;;;;5034876;28;20032;-76
2022/04/25 12:38:06;;;;;;;8.07;4.90;;;10.70;99.90;;;;;;5036174;28;20021;-77
2022/04/25 12:40:33;;;;;;;;;;;10.60;99.90;;;;;;5050764;28;20033;-76
2022/04/25 12:42:59;;;;;;;7.38;5.25;;;10.60;99.90;;;;;;5035275;28;19978;-77
2022/04/25 12:45:25;;;;;;;9.27;6.30;;;10.60;99.90;;;;;;5033270;28;20052;-76
2022/04/25 12:47:56;;;;;;;7.30;5.07;;;10.60;99.90;;;;;;5029563;28;20037;-77
2022/04/25 12:50:52;;;;;;;10.38;6.82;;;10.70;99.90;;;;;;5050731;28;20040;-76
2022/04/25 12:53:38;;;;;;;9.63;6.50;;;10.80;99.90;;;;;;5027043;28;20041;-76
2022/04/25 12:56:04;;;;;;;6.47;3.70;;;10.80;99.90;;;;;;5033786;28;20053;-77
2022/04/25 12:58:33;;;;;;;4.45;3.70;;;10.90;99.90;;;;;;5033821;28;20032;-76
2022/04/25 13:00:59;;;;;;;13.30;7.28;;;10.80;99.90;;;;;;5032131;28;20094;-77
2022/04/25 13:03:26;;;;;;;10.77;8.13;;;10.80;99.90;;;;;;5034132;28;20034;-77
2022/04/25 13:05:53;;;;;;;10.00;6.88;;;10.70;99.90;;;;;;5017223;28;20049;-76
2022/04/25 13:08:20;;;;;;;11.70;8.27;;;10.60;99.90;;;;;;5031845;28;20031;-76
2022/04/25 13:10:46;;;;;;;7.10;5.88;;;10.50;99.90;;;;;;5032968;28;20049;-77
2022/04/25 13:13:11;;;;;;;7.03;5.20;;;10.70;99.90;;;;;;5032783;28;20097;-76
2022/04/25 13:15:38;;;;;;;11.95;8.35;;;10.80;99.90;;;;;;5028889;28;20177;-76
2022/04/25 13:18:05;;;;;;;8.90;6.68;;;10.90;99.90;;;;;;5030825;28;20114;-76
2022/04/25 13:20:31;;;;;;;12.70;8.15;;;11.10;99.90;;;;;;5032701;28;20468;-77
2022/04/25 13:22:59;;;;;;;11.32;6.95;;;11.10;99.90;;;;;;5047783;28;20477;-77
2022/04/25 13:25:25;;;;;;;14.00;8.38;;;11.10;99.90;;;;;;5033524;28;20032;-77
2022/04/25 13:27:51;;;;;;;11.85;8.95;;;10.80;99.90;;;;;;5034342;28;20484;-77
2022/04/25 13:30:19;;;;;;;12.95;7.88;;;10.70;99.90;;;;;;5034822;28;20037;-77
2022/04/25 13:32:45;;;;;;;10.52;7.60;;;10.70;99.90;;;;;;5034625;28;20098;-77
2022/04/25 13:35:14;;;;;;;11.38;8.20;;;10.80;99.90;;;;;;5036669;28;20532;-77